ノーフォーク島 の空港の天気 - METARとTAF

ノーフォーク島空港 ( YSNF / NLK ) - ノーフォーク島 ノーフォーク島
飛行場実況気象(Metar)
観測時間06/01 19:00 NFT (06/01 08:00 UTC)
風向・風速南西 2m/s
視程10km以上
天気現象
全天の4割程度の雲 雲底高度 940m
気温16℃
湿度77%
気圧1021hPa
METARYSNF 010800Z AUTO 22004KT 9999 // SCT031 16/12 Q1021
過去の天気等 Google飛行場航空写真 Wunderground天気予報

過去48時間のMETAR

飛行場予報(TAF)
発表時間: 6/01 16:16 NFT (6/01 05:16 UTC)
予報対象時間: 1日17時 NFT ~ 2日17時 NFT
風向・風速南南西 3m/s
視程10km以上
全天の4割程度の雲 雲底高度 760m
2日3時 NFT から
風向・風速北 5m/s
視程10km以上
少しの雲 雲底高度 760m
全天の4割程度の雲 雲底高度 910m
TAF YSNF 010516Z 0106/0206 21006KT 9999 SCT025
FM011600 36010KT 9999 FEW025 SCT030